Forestgrove, Montana
Current Conditions -  °F | °C
As of 6:55 AM on Monday 24 Nov 2014 (Local Time) from KMVH Reporting Station
Overcast Overcast  
Wind Chill: 19°   Ceiling: 5000
Heat Index: 32°   Visibility: 10mi
Dew Point: 18°   Wind: 24mph
Humidity: 55%   Direction: 310°NW
Pressure: 29.91"   Gusts: 39mph
Location:  46.99°N, 109.08°W
Report Text: KMVH 241355Z AUTO 31021G34KT 10SM FEW017 BKN050 OVC075 00/M08 A2991 RMK A01
Loading
Personal Weather Stations






























Interactive Weather Map New forecast layout! Learn more

10-Day Weather Forecast

Advertisements
Track Severe Weather on mobile